Time;durP1;ratioP1;P1;durP2;ratioP2;P2;SDS_P1;SDS_P2;PMS_P1;PMS_P2;Temp;Humidity;BMP_temperature;BMP_pressure;BME280_temperature;BME280_humidity;BME280_pressure;Samples;Min_cycle;Max_cycle;Signal;HPM_P1;HPM_P2
2023/01/23 00:01:18;;;;;;;4.57;2.40;;;18.90;36.70;;;;;;5109914;27;20192;-68
2023/01/23 00:03:45;;;;;;;6.55;2.90;;;18.80;36.10;;;;;;5110174;28;20077;-69
2023/01/23 00:06:15;;;;;;;6.07;2.75;;;18.70;36.80;;;;;;5111186;28;20064;-67
2023/01/23 00:08:45;;;;;;;7.80;2.55;;;18.70;36.60;;;;;;5117371;27;20099;-66
2023/01/23 00:11:15;;;;;;;3.92;2.42;;;18.60;36.70;;;;;;5113485;27;20409;-66
2023/01/23 00:13:42;;;;;;;12.70;3.75;;;18.60;37.30;;;;;;5111018;28;20491;-68
2023/01/23 00:16:12;;;;;;;6.20;2.65;;;18.80;36.30;;;;;;5110941;28;20503;-70
2023/01/23 00:18:38;;;;;;;8.05;2.97;;;18.60;36.70;;;;;;5110523;28;20067;-71
2023/01/23 00:21:11;;;;;;;17.60;3.83;;;18.50;37.50;;;;;;5109680;28;20162;-66
2023/01/23 00:23:40;;;;;;;21.50;9.85;;;18.40;36.80;;;;;;5109824;27;20064;-66
2023/01/23 00:26:10;;;;;;;9.50;3.15;;;18.30;37.20;;;;;;5111448;27;21655;-65
2023/01/23 00:28:36;;;;;;;33.92;14.40;;;18.20;37.50;;;;;;5113901;27;20105;-64
2023/01/23 00:31:26;;;;;;;25.65;14.32;;;18.10;37.40;;;;;;5111050;27;20062;-64
2023/01/23 00:33:58;;;;;;;30.48;12.75;;;18.00;38.30;;;;;;5108276;28;20060;-65
2023/01/23 00:36:28;;;;;;;27.58;12.88;;;17.90;38.50;;;;;;5111425;28;20086;-66
2023/01/23 00:38:55;;;;;;;25.38;10.65;;;17.80;38.50;;;;;;5110911;27;20069;-64
2023/01/23 00:41:21;;;;;;;22.05;10.68;;;17.70;39.10;;;;;;5111087;27;20085;-65
2023/01/23 00:43:50;;;;;;;22.30;10.38;;;17.60;39.40;;;;;;5114025;27;20094;-65
2023/01/23 00:46:19;;;;;;;22.00;10.95;;;17.50;40.00;;;;;;5113486;27;20050;-65
2023/01/23 00:48:45;;;;;;;20.65;10.90;;;17.50;40.60;;;;;;5095099;28;20071;-65
2023/01/23 00:51:12;;;;;;;10.18;3.92;;;17.40;40.70;;;;;;5115252;27;20108;-65
2023/01/23 00:53:38;;;;;;;12.68;5.15;;;17.20;41.00;;;;;;5112517;27;20066;-67
2023/01/23 00:56:05;;;;;;;15.70;6.93;;;17.10;41.30;;;;;;5109168;27;20112;-66
2023/01/23 00:58:32;;;;;;;14.48;7.53;;;17.00;41.70;;;;;;5112587;27;20547;-66
2023/01/23 01:00:58;;;;;;;16.88;8.57;;;16.80;41.90;;;;;;5113575;27;20084;-65
2023/01/23 01:03:25;;;;;;;23.48;8.10;;;16.70;42.00;;;;;;5115236;27;20067;-65
2023/01/23 01:05:52;;;;;;;29.35;9.88;;;16.70;43.30;;;;;;5114332;27;20095;-65
2023/01/23 01:08:18;;;;;;;19.73;8.32;;;16.60;44.10;;;;;;5115371;27;20072;-64
2023/01/23 01:10:45;;;;;;;13.48;6.68;;;16.40;44.80;;;;;;5113964;27;20063;-65
2023/01/23 01:13:11;;;;;;;14.88;6.25;;;16.30;45.90;;;;;;5105675;27;20060;-65
2023/01/23 01:15:38;;;;;;;14.13;6.57;;;16.20;46.30;;;;;;5116844;27;20110;-65
2023/01/23 01:18:05;;;;;;;15.98;6.15;;;16.10;47.00;;;;;;5111357;27;20090;-67
2023/01/23 01:20:31;;;;;;;11.25;6.40;;;16.10;47.70;;;;;;5106171;28;20103;-66
2023/01/23 01:22:59;;;;;;;12.18;5.97;;;16.00;48.30;;;;;;5093274;27;20427;-67
2023/01/23 01:25:26;;;;;;;9.32;5.32;;;15.90;48.70;;;;;;5112985;27;20436;-65
2023/01/23 01:27:53;;;;;;;11.85;5.75;;;15.80;49.30;;;;;;5093087;27;20066;-67
2023/01/23 01:30:19;;;;;;;9.25;5.00;;;15.70;49.20;;;;;;5113802;27;20071;-65
2023/01/23 01:32:46;;;;;;;10.75;6.00;;;15.60;49.70;;;;;;5109289;27;20117;-68
2023/01/23 01:35:12;;;;;;;14.15;5.60;;;15.50;50.00;;;;;;5114545;27;20075;-67
2023/01/23 01:37:40;;;;;;;14.77;6.25;;;15.50;49.80;;;;;;5112914;27;20547;-67
2023/01/23 01:40:11;;;;;;;27.10;12.77;;;15.40;50.10;;;;;;5111869;28;20094;-67
2023/01/23 01:42:40;;;;;;;33.67;17.45;;;15.30;49.10;;;;;;5111631;27;20072;-66
2023/01/23 01:45:45;;;;;;;31.40;17.60;;;15.20;49.30;;;;;;5114119;27;20066;-66
2023/01/23 01:48:11;;;;;;;29.83;12.15;;;15.20;48.90;;;;;;5112897;27;20083;-65
2023/01/23 01:50:38;;;;;;;22.80;11.82;;;15.10;49.10;;;;;;5090654;28;20088;-68
2023/01/23 01:53:05;;;;;;;28.52;11.38;;;15.00;49.40;;;;;;5114216;27;20071;-69
2023/01/23 01:55:32;;;;;;;20.95;10.35;;;14.90;49.60;;;;;;5109466;27;20066;-67
2023/01/23 01:57:59;;;;;;;17.75;9.27;;;14.90;49.60;;;;;;5088477;28;20078;-66
2023/01/23 02:00:25;;;;;;;26.27;9.20;;;14.70;49.80;;;;;;5109972;28;20176;-68
2023/01/23 02:03:01;;;;;;;19.92;9.75;;;14.70;49.60;;;;;;5107276;28;20072;-68
2023/01/23 02:05:38;;;;;;;19.08;8.88;;;14.60;49.50;;;;;;5088980;28;20563;-69
2023/01/23 02:08:27;;;;;;;21.52;9.23;;;14.50;50.00;;;;;;5107013;28;20147;-65
2023/01/23 02:10:54;;;;;;;19.77;8.65;;;14.40;50.00;;;;;;5108277;28;20101;-67
2023/01/23 02:13:24;;;;;;;19.45;9.07;;;14.40;50.00;;;;;;5107807;28;20074;-67
2023/01/23 02:15:51;;;;;;;18.52;8.93;;;14.40;50.00;;;;;;5108708;27;20168;-65
2023/01/23 02:18:20;;;;;;;25.33;8.80;;;14.30;50.10;;;;;;5107128;28;20091;-65
2023/01/23 02:20:47;;;;;;;15.85;8.48;;;14.30;50.10;;;;;;5108041;28;20167;-67
2023/01/23 02:23:32;;;;;;;18.73;8.90;;;14.30;50.30;;;;;;5106780;28;20081;-66
2023/01/23 02:26:05;;;;;;;18.45;8.05;;;14.20;50.10;;;;;;5104256;28;20069;-69
2023/01/23 02:28:44;;;;;;;15.38;7.72;;;14.20;50.10;;;;;;5104344;28;20552;-64
2023/01/23 02:31:11;;;;;;;18.48;8.05;;;14.10;50.50;;;;;;5119302;28;20080;-67
2023/01/23 02:33:38;;;;;;;22.85;8.75;;;14.10;50.40;;;;;;5115485;28;20087;-66
2023/01/23 02:36:07;;;;;;;15.43;8.57;;;14.00;50.40;;;;;;5115006;28;20084;-68
2023/01/23 02:38:53;;;;;;;22.00;9.20;;;13.90;50.20;;;;;;5112087;28;20551;-68
2023/01/23 02:41:27;;;;;;;31.40;10.05;;;13.90;50.70;;;;;;5112625;28;20099;-67
2023/01/23 02:43:56;;;;;;;18.58;10.13;;;13.90;50.30;;;;;;5115761;28;20069;-67
2023/01/23 02:46:24;;;;;;;29.90;10.63;;;13.90;50.50;;;;;;5114818;28;20516;-67
2023/01/23 02:48:51;;;;;;;30.33;13.48;;;13.80;51.00;;;;;;5110465;28;20066;-68
2023/01/23 02:51:19;;;;;;;27.92;13.25;;;13.80;50.90;;;;;;5111894;28;20081;-65
2023/01/23 02:53:46;;;;;;;27.98;14.05;;;13.70;50.70;;;;;;5111487;28;20521;-67
2023/01/23 02:56:13;;;;;;;27.27;11.88;;;13.60;50.50;;;;;;5110281;28;20139;-68
2023/01/23 03:01:26;;;;;;;25.35;11.85;;;13.60;50.90;;;;;;5111050;28;20107;-66
2023/01/23 03:03:56;;;;;;;24.63;13.32;;;13.60;50.80;;;;;;5111639;28;20118;-65
2023/01/23 03:06:23;;;;;;;33.03;14.20;;;13.50;51.10;;;;;;5110996;28;20065;-69
2023/01/23 03:08:50;;;;;;;30.80;15.30;;;13.40;50.50;;;;;;5107825;28;20087;-67
2023/01/23 03:11:17;;;;;;;34.47;16.40;;;13.40;50.50;;;;;;5113675;28;20145;-67
2023/01/23 03:13:46;;;;;;;34.03;16.90;;;13.30;50.70;;;;;;5111852;28;20074;-67
2023/01/23 03:16:12;;;;;;;29.33;16.38;;;13.30;50.50;;;;;;5111532;27;20128;-66
2023/01/23 03:18:38;;;;;;;;;;;13.30;51.00;;;;;;5119200;27;20077;-66
2023/01/23 03:21:06;;;;;;;27.83;14.35;;;13.30;51.70;;;;;;5117763;27;19974;-67
2023/01/23 03:23:32;;;;;;;33.80;15.32;;;13.20;51.60;;;;;;5113417;27;20144;-66
2023/01/23 03:25:59;;;;;;;28.10;15.05;;;13.10;52.10;;;;;;5115635;27;20071;-67
2023/01/23 03:31:10;;;;;;;26.13;13.30;;;13.00;52.90;;;;;;5112203;27;19992;-65
2023/01/23 03:33:38;;;;;;;37.88;16.67;;;12.90;52.80;;;;;;5117453;27;20069;-65
2023/01/23 03:36:07;;;;;;;30.33;13.10;;;12.80;53.40;;;;;;5124359;27;20136;-66
2023/01/23 03:38:34;;;;;;;32.17;13.77;;;12.70;53.50;;;;;;5115858;27;20089;-68
2023/01/23 03:43:44;;;;;;;30.42;12.32;;;12.50;53.70;;;;;;5110570;27;19975;-66
2023/01/23 03:46:10;;;;;;;;;;;12.40;53.70;;;;;;5113757;27;20089;-67
2023/01/23 03:48:38;;;;;;;25.60;12.23;;;12.40;54.40;;;;;;5111551;28;19983;-68
2023/01/23 03:51:06;;;;;;;41.50;14.13;;;12.40;54.80;;;;;;5115666;27;20082;-69
2023/01/23 03:53:33;;;;;;;29.42;11.82;;;12.20;54.70;;;;;;5113142;27;20076;-68
2023/01/23 03:56:00;;;;;;;34.00;11.73;;;12.20;55.40;;;;;;5093085;28;20081;-67
2023/01/23 03:58:26;;;;;;;45.03;12.60;;;12.10;55.70;;;;;;5119090;27;20071;-66
2023/01/23 04:00:53;;;;;;;30.67;13.02;;;12.00;55.60;;;;;;5113453;27;20113;-67
2023/01/23 04:03:19;;;;;;;;;;;12.00;56.10;;;;;;5116663;27;20062;-66
2023/01/23 04:05:45;;;;;;;30.00;12.10;;;12.00;56.10;;;;;;5114517;27;19954;-69
2023/01/23 04:08:11;;;;;;;;;;;11.90;56.60;;;;;;5116092;27;20134;-68
2023/01/23 04:10:37;;;;;;;35.45;12.20;;;11.80;56.20;;;;;;5112800;27;20044;-65
2023/01/23 04:13:03;;;;;;;;;;;11.70;56.90;;;;;;5117033;27;20073;-72
2023/01/23 04:15:32;;;;;;;30.00;13.73;;;11.60;57.40;;;;;;5119002;27;20070;-68
2023/01/23 04:17:58;;;;;;;47.25;15.43;;;11.60;57.00;;;;;;5115544;27;20084;-67
2023/01/23 04:20:25;;;;;;;52.95;14.68;;;11.50;56.90;;;;;;5113194;27;20826;-67
2023/01/23 04:22:51;;;;;;;;;;;11.50;57.30;;;;;;5112222;27;20066;-67
2023/01/23 04:25:17;;;;;;;39.47;14.27;;;11.30;57.50;;;;;;5111658;27;19954;-66
2023/01/23 04:27:43;;;;;;;;;;;11.30;57.80;;;;;;5117021;27;20534;-68
2023/01/23 04:30:10;;;;;;;30.45;14.18;;;11.30;58.10;;;;;;5116595;27;19958;-67
2023/01/23 04:32:36;;;;;;;34.53;13.98;;;11.40;58.60;;;;;;5090966;28;20539;-67
2023/01/23 04:35:03;;;;;;;;;;;11.30;58.10;;;;;;5109930;28;20073;-67
2023/01/23 04:37:29;;;;;;;43.63;17.10;;;11.20;58.40;;;;;;5111732;27;20323;-68
2023/01/23 04:39:55;;;;;;;;;;;11.20;59.00;;;;;;5109650;28;20073;-66
2023/01/23 04:42:21;;;;;;;41.80;16.90;;;11.20;59.00;;;;;;5110674;27;20019;-63
2023/01/23 04:44:47;;;;;;;;;;;11.00;59.00;;;;;;5109948;27;20073;-67
2023/01/23 04:47:14;;;;;;;46.72;18.20;;;11.00;59.10;;;;;;5117161;27;19978;-66
2023/01/23 04:49:41;;;;;;;;;;;11.00;59.00;;;;;;5114702;27;20112;-70
2023/01/23 04:52:08;;;;;;;43.17;18.40;;;11.00;59.70;;;;;;5111731;27;20368;-71
2023/01/23 04:54:34;;;;;;;44.00;18.23;;;10.90;59.50;;;;;;5107291;28;20139;-70
2023/01/23 04:57:00;;;;;;;;;;;10.80;59.30;;;;;;5105657;28;20145;-66
2023/01/23 04:59:27;;;;;;;50.58;17.30;;;10.90;59.80;;;;;;5090660;28;19984;-68
2023/01/23 05:01:53;;;;;;;;;;;10.80;59.70;;;;;;5111572;27;20563;-73
2023/01/23 05:04:19;;;;;;;31.40;14.77;;;10.80;59.60;;;;;;5107473;28;19954;-66
2023/01/23 05:06:45;;;;;;;;;;;10.80;59.60;;;;;;5112411;27;20153;-68
2023/01/23 05:09:12;;;;;;;41.88;15.00;;;10.80;59.40;;;;;;5108493;28;19961;-67
2023/01/23 05:11:38;;;;;;;45.00;15.38;;;10.70;59.40;;;;;;5113169;27;20117;-67
2023/01/23 05:14:04;;;;;;;;;;;10.70;59.30;;;;;;5119914;27;20066;-67
2023/01/23 05:16:31;;;;;;;50.47;18.70;;;10.70;59.10;;;;;;5108548;27;19983;-68
2023/01/23 05:18:57;;;;;;;56.85;23.00;;;10.60;59.20;;;;;;5108288;28;20359;-67
2023/01/23 05:21:26;;;;;;;56.97;23.05;;;10.60;58.90;;;;;;5113051;27;20105;-68
2023/01/23 05:23:52;;;;;;;;;;;10.60;59.30;;;;;;5108121;28;20093;-67
2023/01/23 05:26:18;;;;;;;61.17;25.13;;;10.60;59.20;;;;;;5115148;27;19953;-68
2023/01/23 05:28:45;;;;;;;63.90;24.98;;;10.60;58.80;;;;;;5110155;28;20126;-67
2023/01/23 05:31:12;;;;;;;63.10;24.88;;;10.50;58.80;;;;;;5115249;27;20074;-68
2023/01/23 05:33:39;;;;;;;60.92;24.13;;;10.50;59.00;;;;;;5110703;27;20098;-69
2023/01/23 05:36:06;;;;;;;68.35;25.63;;;10.50;59.30;;;;;;5112778;27;20433;-69
2023/01/23 05:38:32;;;;;;;63.65;25.42;;;10.50;59.30;;;;;;5112650;28;20074;-72
2023/01/23 05:40:59;;;;;;;63.00;25.05;;;10.50;58.60;;;;;;5111058;27;20454;-66
2023/01/23 05:43:25;;;;;;;;;;;10.50;58.60;;;;;;5110979;27;20074;-67
2023/01/23 05:45:51;;;;;;;74.65;29.85;;;10.40;57.50;;;;;;5109795;27;20019;-69
2023/01/23 05:48:17;;;;;;;;;;;10.40;57.40;;;;;;5109058;27;20082;-67
2023/01/23 05:50:44;;;;;;;64.10;26.52;;;10.40;57.50;;;;;;5111088;27;20010;-68
2023/01/23 05:53:10;;;;;;;65.80;24.08;;;10.40;57.80;;;;;;5107417;27;20066;-68
2023/01/23 05:55:40;;;;;;;49.90;20.58;;;10.30;57.60;;;;;;5118045;27;20089;-66
2023/01/23 05:58:06;;;;;;;41.03;15.65;;;10.30;57.10;;;;;;5110082;28;20058;-65
2023/01/23 06:00:32;;;;;;;;;;;10.30;56.40;;;;;;5106705;28;20096;-69
2023/01/23 06:02:59;;;;;;;38.70;16.75;;;10.30;56.00;;;;;;5114967;27;20045;-68
2023/01/23 06:05:25;;;;;;;44.80;18.15;;;10.40;56.00;;;;;;5119063;27;20425;-70
2023/01/23 06:07:52;;;;;;;46.85;18.88;;;10.40;55.30;;;;;;5116625;27;20168;-68
2023/01/23 06:10:18;;;;;;;39.60;17.60;;;10.50;54.50;;;;;;5115784;27;20066;-68
2023/01/23 06:12:45;;;;;;;47.72;16.20;;;10.50;54.30;;;;;;5113896;28;20485;-65
2023/01/23 06:15:11;;;;;;;;;;;10.50;53.90;;;;;;5089138;28;20461;-67
2023/01/23 06:17:37;;;;;;;36.35;13.98;;;10.60;53.70;;;;;;5115100;28;20418;-72
2023/01/23 06:20:04;;;;;;;;;;;10.60;53.90;;;;;;5113683;28;20542;-64
2023/01/23 06:22:30;;;;;;;33.58;10.50;;;10.60;53.70;;;;;;5111000;28;19955;-69
2023/01/23 06:24:56;;;;;;;;;;;10.60;53.70;;;;;;5114730;28;20122;-66
2023/01/23 06:27:23;;;;;;;21.75;7.57;;;10.70;53.50;;;;;;5109737;28;20085;-71
2023/01/23 06:29:49;;;;;;;;;;;10.60;53.70;;;;;;5112057;28;20185;-66
2023/01/23 06:32:15;;;;;;;21.05;6.78;;;10.60;54.10;;;;;;5110699;28;20335;-69
2023/01/23 06:34:42;;;;;;;22.90;5.70;;;10.60;53.80;;;;;;5108442;28;20070;-67
2023/01/23 06:37:08;;;;;;;;;;;10.60;53.70;;;;;;5110792;28;20073;-69
2023/01/23 06:39:34;;;;;;;16.85;5.25;;;10.60;54.00;;;;;;5107558;28;19958;-67
2023/01/23 06:42:00;;;;;;;;;;;10.50;53.80;;;;;;5108171;28;20669;-65
2023/01/23 06:44:27;;;;;;;14.15;4.80;;;10.50;53.80;;;;;;5108620;28;20435;-67
2023/01/23 06:46:53;;;;;;;14.20;4.20;;;10.50;54.10;;;;;;5106512;28;20109;-65
2023/01/23 06:49:19;;;;;;;21.33;4.50;;;10.50;53.70;;;;;;5113158;27;20086;-67
2023/01/23 06:51:45;;;;;;;;;;;10.50;54.60;;;;;;5112217;28;20086;-65
2023/01/23 06:54:12;;;;;;;11.32;4.38;;;10.50;54.10;;;;;;5111069;28;20011;-68
2023/01/23 06:56:38;;;;;;;;;;;10.40;54.10;;;;;;5112389;28;20161;-66
2023/01/23 06:59:05;;;;;;;15.65;5.10;;;10.40;53.80;;;;;;5111806;27;19961;-66
2023/01/23 07:01:31;;;;;;;14.32;4.45;;;10.50;54.10;;;;;;5109479;28;20631;-66
2023/01/23 07:03:57;;;;;;;;;;;10.50;53.60;;;;;;5112254;28;20076;-67
2023/01/23 07:06:24;;;;;;;9.50;3.63;;;10.50;53.50;;;;;;5111642;27;19998;-65
2023/01/23 07:08:50;;;;;;;;;;;10.50;53.60;;;;;;5111433;28;20082;-67
2023/01/23 07:11:16;;;;;;;7.22;2.95;;;10.50;53.70;;;;;;5112135;28;19961;-66
2023/01/23 07:13:43;;;;;;;10.02;2.95;;;10.40;53.70;;;;;;5112454;28;20065;-66
2023/01/23 07:16:09;;;;;;;;;;;10.30;53.80;;;;;;5111704;28;20170;-68
2023/01/23 07:18:35;;;;;;;9.40;2.80;;;10.40;54.50;;;;;;5110006;28;19970;-67
2023/01/23 07:21:03;;;;;;;;;;;10.40;54.70;;;;;;5111987;28;20078;-67
2023/01/23 07:23:29;;;;;;;6.50;2.30;;;10.50;54.70;;;;;;5109654;28;20012;-68
2023/01/23 07:25:59;;;;;;;;;;;10.50;54.50;;;;;;5112032;28;20066;-64
2023/01/23 07:28:26;;;;;;;5.40;2.53;;;10.50;54.30;;;;;;5111500;28;20350;-65
2023/01/23 07:30:52;;;;;;;5.97;2.63;;;10.40;54.50;;;;;;5110466;28;20411;-69
2023/01/23 07:33:18;;;;;;;;;;;10.40;54.80;;;;;;5113015;28;20129;-66
2023/01/23 07:35:45;;;;;;;13.52;2.45;;;10.40;55.60;;;;;;5116108;27;20049;-66
2023/01/23 07:38:11;;;;;;;8.10;2.58;;;10.40;55.10;;;;;;5113652;27;20156;-68
2023/01/23 07:40:37;;;;;;;;;;;10.50;55.20;;;;;;5112255;27;20167;-64
2023/01/23 07:43:05;;;;;;;10.90;2.58;;;10.40;55.10;;;;;;5114577;27;19962;-64
2023/01/23 07:45:31;;;;;;;7.55;2.70;;;10.40;55.10;;;;;;5110964;27;20067;-67
2023/01/23 07:47:57;;;;;;;;;;;10.40;54.80;;;;;;5112761;27;20641;-67
2023/01/23 07:50:23;;;;;;;5.40;2.53;;;10.40;54.70;;;;;;5112537;27;19958;-65
2023/01/23 07:52:49;;;;;;;;;;;10.40;54.50;;;;;;5121286;27;20069;-70
2023/01/23 07:55:17;;;;;;;13.63;2.15;;;10.40;54.30;;;;;;5117735;27;19960;-66
2023/01/23 07:57:43;;;;;;;6.43;2.25;;;10.40;54.30;;;;;;5115483;27;20073;-66
2023/01/23 08:00:10;;;;;;;5.97;2.13;;;10.40;54.30;;;;;;5113125;27;20075;-68
2023/01/23 08:02:38;;;;;;;6.05;1.75;;;10.40;54.30;;;;;;5110509;27;20534;-66
2023/01/23 08:05:05;;;;;;;7.65;1.88;;;10.30;53.70;;;;;;5113610;27;20090;-65
2023/01/23 08:07:31;;;;;;;2.60;1.30;;;10.30;53.50;;;;;;5112024;27;20073;-65
2023/01/23 08:09:57;;;;;;;;;;;10.20;53.20;;;;;;5115989;27;20145;-64
2023/01/23 08:12:23;;;;;;;6.93;1.45;;;10.30;53.40;;;;;;5110461;28;20040;-65
2023/01/23 08:14:49;;;;;;;;;;;10.30;52.70;;;;;;5111159;28;20584;-67
2023/01/23 08:17:16;;;;;;;12.00;1.40;;;10.30;52.00;;;;;;5114235;27;19954;-66
2023/01/23 08:19:42;;;;;;;13.25;1.90;;;10.30;50.20;;;;;;5110391;28;20075;-66
2023/01/23 08:22:08;;;;;;;;;;;10.30;48.00;;;;;;5110050;28;20116;-64
2023/01/23 08:24:35;;;;;;;25.35;1.85;;;10.40;46.10;;;;;;5111318;27;20013;-69
2023/01/23 08:27:01;;;;;;;;;;;10.50;45.00;;;;;;5111944;27;20073;-64
2023/01/23 08:29:27;;;;;;;31.15;2.70;;;10.60;44.60;;;;;;5110054;28;19973;-63
2023/01/23 08:31:53;;;;;;;;;;;10.60;44.30;;;;;;5110845;28;20127;-64
2023/01/23 08:34:22;;;;;;;34.88;2.28;;;10.70;44.30;;;;;;5112593;27;19961;-65
2023/01/23 08:36:49;;;;;;;36.38;2.58;;;10.70;44.70;;;;;;5118132;27;20090;-66
2023/01/23 08:39:16;;;;;;;34.15;2.55;;;10.60;45.10;;;;;;5109907;27;20099;-63
2023/01/23 08:41:43;;;;;;;30.75;2.10;;;10.50;45.50;;;;;;5109736;27;20107;-66
2023/01/23 08:44:09;;;;;;;;;;;10.50;46.10;;;;;;5108531;28;20086;-64
2023/01/23 08:46:35;;;;;;;30.00;2.13;;;10.40;46.60;;;;;;5109183;28;20350;-65
2023/01/23 08:49:03;;;;;;;;;;;10.30;46.40;;;;;;5109273;28;20090;-64
2023/01/23 08:51:30;;;;;;;31.08;2.10;;;10.30;46.10;;;;;;5108121;28;19951;-65
2023/01/23 08:53:57;;;;;;;20.60;1.75;;;10.20;46.30;;;;;;5091006;28;20086;-65
2023/01/23 08:56:24;;;;;;;24.33;1.63;;;10.20;46.60;;;;;;5108312;28;20094;-65
2023/01/23 08:58:51;;;;;;;29.75;1.80;;;10.20;46.10;;;;;;5109030;28;20509;-66
2023/01/23 09:01:25;;;;;;;20.05;1.40;;;10.20;45.70;;;;;;5109764;27;20142;-64
2023/01/23 09:03:52;;;;;;;18.80;1.50;;;10.20;45.30;;;;;;5107491;28;20070;-64
2023/01/23 09:06:20;;;;;;;14.20;1.30;;;10.30;43.70;;;;;;5108428;27;20086;-64
2023/01/23 09:08:47;;;;;;;14.82;1.48;;;10.40;42.10;;;;;;5108339;28;20406;-64
2023/01/23 09:11:14;;;;;;;21.67;1.27;;;10.60;41.60;;;;;;5108127;28;20089;-65
2023/01/23 09:13:41;;;;;;;21.90;1.38;;;10.80;41.10;;;;;;5108045;28;20066;-65
2023/01/23 09:16:08;;;;;;;12.75;1.38;;;10.80;41.20;;;;;;5107279;28;20231;-63
2023/01/23 09:18:35;;;;;;;12.52;1.20;;;10.90;41.30;;;;;;5107641;28;20074;-64
2023/01/23 09:21:10;;;;;;;15.90;1.48;;;10.90;41.00;;;;;;5107112;28;20148;-65
2023/01/23 09:23:37;;;;;;;16.33;1.17;;;11.00;40.80;;;;;;5107978;28;20576;-63
2023/01/23 09:26:11;;;;;;;20.98;1.13;;;11.00;40.50;;;;;;5108114;28;20073;-64
2023/01/23 09:28:40;;;;;;;14.43;1.02;;;11.00;40.30;;;;;;5107025;28;20059;-66
2023/01/23 09:31:09;;;;;;;12.60;1.00;;;11.00;40.50;;;;;;5106738;28;20084;-64
2023/01/23 09:33:36;;;;;;;13.07;1.33;;;11.00;40.10;;;;;;5107686;27;20077;-66
2023/01/23 09:36:04;;;;;;;9.30;1.13;;;11.00;39.80;;;;;;5107421;28;20088;-66
2023/01/23 09:38:32;;;;;;;17.40;1.10;;;11.00;40.20;;;;;;5112208;27;20513;-64
2023/01/23 09:41:06;;;;;;;7.10;1.05;;;10.90;40.50;;;;;;5108968;27;20542;-65
2023/01/23 09:43:51;;;;;;;10.27;1.00;;;10.90;40.70;;;;;;5108258;27;20082;-64
2023/01/23 09:46:44;;;;;;;9.00;1.05;;;10.80;40.30;;;;;;5107640;28;20110;-64
2023/01/23 09:49:20;;;;;;;14.13;1.02;;;10.80;40.50;;;;;;5089174;28;20102;-65
2023/01/23 09:52:06;;;;;;;7.28;0.68;;;10.80;40.80;;;;;;5108590;27;20566;-63
2023/01/23 09:54:43;;;;;;;9.30;0.90;;;10.80;41.30;;;;;;5107786;28;20073;-67
2023/01/23 09:57:24;;;;;;;12.50;0.93;;;10.70;42.10;;;;;;5089262;28;20127;-64
2023/01/23 10:00:17;;;;;;;22.33;1.35;;;10.60;41.90;;;;;;5087952;28;20168;-65
2023/01/23 10:02:44;;;;;;;18.35;1.20;;;10.70;40.90;;;;;;5108976;27;20176;-65
2023/01/23 10:05:16;;;;;;;16.73;1.40;;;10.70;40.90;;;;;;5111381;27;20088;-63
2023/01/23 10:07:54;;;;;;;15.60;1.27;;;10.70;40.90;;;;;;5108946;28;20597;-64
2023/01/23 10:10:39;;;;;;;23.15;1.50;;;10.70;40.60;;;;;;5109006;27;20123;-64
2023/01/23 10:13:35;;;;;;;34.97;1.80;;;10.70;40.20;;;;;;5106717;28;21999;-64
2023/01/23 10:16:39;;;;;;;56.45;2.60;;;10.70;40.20;;;;;;5098029;28;20134;-63
2023/01/23 10:19:34;;;;;;;43.20;2.60;;;10.80;39.10;;;;;;5106536;28;20101;-64
2023/01/23 10:22:57;;;;;;;71.82;4.40;;;10.90;38.20;;;;;;5105815;28;20097;-63
2023/01/23 10:25:27;;;;;;;29.45;2.22;;;11.20;36.70;;;;;;5031865;28;20081;-65
2023/01/23 10:27:58;;;;;;;16.35;0.93;;;11.20;37.50;;;;;;5033395;28;20443;-65
2023/01/23 10:30:34;;;;;;;9.10;1.02;;;11.20;38.30;;;;;;5032414;28;20091;-63
2023/01/23 10:33:17;;;;;;;15.32;0.80;;;11.10;39.30;;;;;;5033658;28;20135;-64
2023/01/23 10:35:46;;;;;;;11.32;0.65;;;10.90;39.80;;;;;;5016690;28;20143;-64
2023/01/23 10:38:31;;;;;;;12.80;1.27;;;10.80;40.40;;;;;;5035651;28;20075;-65
2023/01/23 10:41:13;;;;;;;19.45;1.48;;;10.80;40.70;;;;;;5035435;28;20084;-64
2023/01/23 10:43:49;;;;;;;32.97;1.42;;;10.60;40.50;;;;;;5032597;28;20667;-64
2023/01/23 10:46:31;;;;;;;22.85;1.98;;;10.70;40.50;;;;;;5034957;28;20581;-63
2023/01/23 10:48:59;;;;;;;29.45;1.55;;;10.70;40.50;;;;;;5031282;28;20099;-63
2023/01/23 10:51:31;;;;;;;49.30;2.78;;;10.70;40.20;;;;;;5032294;28;20104;-64
2023/01/23 10:54:06;;;;;;;37.60;1.70;;;10.70;40.00;;;;;;5031446;28;20133;-64
2023/01/23 10:56:35;;;;;;;35.92;2.53;;;10.70;40.20;;;;;;5086477;28;20558;-65
2023/01/23 10:59:04;;;;;;;30.25;2.65;;;10.70;40.00;;;;;;5114929;27;20162;-65
2023/01/23 11:01:33;;;;;;;27.55;1.90;;;10.70;39.60;;;;;;5111583;28;20083;-62
2023/01/23 11:04:10;;;;;;;46.58;2.30;;;10.70;39.30;;;;;;5112197;27;20097;-65
2023/01/23 11:06:37;;;;;;;23.02;1.50;;;10.80;39.10;;;;;;5113201;28;20069;-64
2023/01/23 11:09:03;;;;;;;;;;;10.80;39.30;;;;;;5112885;28;20082;-65
2023/01/23 11:11:32;;;;;;;8.45;0.85;;;10.70;39.20;;;;;;5113157;27;20009;-65
2023/01/23 11:14:12;;;;;;;4.20;0.60;;;10.70;39.50;;;;;;5113649;28;20124;-63
2023/01/23 11:16:39;;;;;;;7.53;0.90;;;10.70;39.90;;;;;;5116049;27;20105;-63
2023/01/23 11:19:09;;;;;;;7.85;0.65;;;10.60;40.10;;;;;;5111051;27;20527;-63
2023/01/23 11:21:49;;;;;;;4.82;0.75;;;10.60;40.20;;;;;;5113239;27;20110;-63
2023/01/23 11:24:30;;;;;;;11.38;0.75;;;10.50;40.10;;;;;;5113186;27;20066;-61
2023/01/23 11:27:29;;;;;;;18.80;1.48;;;10.50;40.20;;;;;;5111942;27;20090;-63
2023/01/23 11:30:44;;;;;;;10.27;0.60;;;10.50;40.00;;;;;;5112660;27;20152;-65
2023/01/23 11:33:24;;;;;;;7.32;0.80;;;10.60;39.80;;;;;;5110210;27;20090;-64
2023/01/23 11:36:22;;;;;;;12.35;0.75;;;10.60;40.10;;;;;;5108200;28;20133;-67
2023/01/23 11:39:00;;;;;;;7.15;0.50;;;10.50;40.50;;;;;;5102399;27;20544;-65
2023/01/23 11:41:32;;;;;;;16.55;7.80;;;10.50;41.00;;;;;;5109244;28;20172;-66
2023/01/23 11:44:05;;;;;;;3.38;0.70;;;10.40;41.40;;;;;;5108891;28;20063;-63
2023/01/23 11:47:19;;;;;;;7.00;0.40;;;10.30;42.20;;;;;;5106729;28;20059;-64
2023/01/23 11:50:04;;;;;;;5.18;0.60;;;10.30;41.80;;;;;;5034290;28;20162;-65
2023/01/23 11:53:08;;;;;;;4.70;0.95;;;10.20;41.30;;;;;;5109410;28;20085;-65
2023/01/23 11:55:57;;;;;;;6.93;0.70;;;10.20;41.30;;;;;;5031279;28;20091;-64
2023/01/23 11:58:42;;;;;;;2.47;0.50;;;10.20;42.10;;;;;;5034298;28;20075;-64
2023/01/23 12:01:12;;;;;;;0.98;0.50;;;10.10;42.60;;;;;;5027879;28;20183;-63
2023/01/23 12:03:47;;;;;;;3.92;0.50;;;10.10;42.80;;;;;;5034631;28;20092;-65
2023/01/23 12:06:39;;;;;;;3.60;0.57;;;10.10;42.90;;;;;;5032530;28;20112;-65
2023/01/23 12:09:20;;;;;;;3.55;0.50;;;10.10;42.80;;;;;;5030524;28;20083;-65
2023/01/23 12:12:10;;;;;;;5.15;0.70;;;10.10;43.20;;;;;;5028241;28;20092;-66
2023/01/23 12:15:13;;;;;;;5.63;0.65;;;10.10;43.60;;;;;;5033553;28;20073;-65
2023/01/23 12:18:05;;;;;;;7.03;0.80;;;10.10;43.80;;;;;;5028026;28;20088;-65
2023/01/23 12:20:50;;;;;;;6.20;0.70;;;10.10;43.80;;;;;;5027532;28;20107;-65
2023/01/23 12:23:19;;;;;;;6.35;0.80;;;10.10;43.70;;;;;;5028270;28;20106;-63
2023/01/23 12:26:00;;;;;;;5.68;0.85;;;10.00;42.90;;;;;;5028882;28;20071;-65
2023/01/23 12:28:27;;;;;;;11.98;0.80;;;10.00;42.80;;;;;;5028342;28;20127;-65
2023/01/23 12:31:05;;;;;;;;;;;10.00;42.50;;;;;;5031339;28;20111;-63
2023/01/23 12:33:50;;;;;;;10.32;0.90;;;10.00;42.40;;;;;;5106344;27;20360;-65
2023/01/23 12:36:34;;;;;;;7.90;0.60;;;10.00;42.00;;;;;;5108487;28;20074;-66
2023/01/23 12:39:28;;;;;;;9.23;0.95;;;10.00;41.70;;;;;;5106451;28;20121;-65
2023/01/23 12:42:07;;;;;;;7.32;0.70;;;10.00;41.20;;;;;;5108254;27;20087;-65
2023/01/23 12:44:37;;;;;;;8.43;0.60;;;10.00;40.80;;;;;;5109741;28;20523;-66
2023/01/23 12:47:47;;;;;;;14.35;0.90;;;10.00;40.60;;;;;;5106809;28;20140;-68
2023/01/23 12:50:34;;;;;;;3.95;0.82;;;10.00;40.90;;;;;;5027208;28;20419;-64
2023/01/23 12:53:06;;;;;;;10.57;0.90;;;9.90;40.90;;;;;;5027324;28;20088;-64
2023/01/23 12:55:42;;;;;;;12.02;0.98;;;10.00;41.20;;;;;;5027910;28;20069;-63
2023/01/23 12:58:15;;;;;;;3.93;0.73;;;9.90;41.20;;;;;;5026809;28;20541;-63
2023/01/23 13:01:10;;;;;;;5.97;0.80;;;9.90;40.90;;;;;;5027745;28;20100;-65
2023/01/23 13:03:57;;;;;;;7.97;0.88;;;9.90;40.90;;;;;;5027962;28;20079;-66
2023/01/23 13:06:45;;;;;;;14.02;1.42;;;9.80;40.90;;;;;;5027923;28;20091;-68
2023/01/23 13:10:09;;;;;;;13.00;1.27;;;9.90;40.90;;;;;;5030123;28;20222;-64
2023/01/23 13:12:35;;;;;;;9.57;0.70;;;9.90;40.70;;;;;;4988743;28;20124;-63
2023/01/23 13:15:18;;;;;;;4.15;1.05;;;9.90;40.50;;;;;;5028402;28;20107;-64
2023/01/23 13:17:50;;;;;;;6.22;0.90;;;9.90;40.40;;;;;;5027189;28;20084;-65
2023/01/23 13:23:27;;;;;;;8.93;0.90;;;9.80;40.30;;;;;;5036492;28;20152;-64